This is the latest recevied weather packets stored in our database for station/object UB3AVW-12. If no packets are shown the sender has not sent any weather packets the latest 1 day(s).
| Time | Temp. | Humidity | Pressure | Rain* | Wind** | Luminosity | Snow |
|---|---|---|---|---|---|---|---|
| 1778001179 | 18.89° C | 68% | 981.5 hPa | - | 3.13 m/s, 273° | - | - |
| 1778000876 | 18.89° C | 68% | 981.5 hPa | - | 3.58 m/s, 268° | - | - |
| 1778000823 | 18.89° C | 68% | 981.5 hPa | - | 3.13 m/s, 273° | - | - |
| 1778000572 | 18.89° C | 68% | 981.5 hPa | - | 3.13 m/s, 273° | - | - |
| 1778000269 | 18.89° C | 68% | 981.5 hPa | - | 4.02 m/s, 268° | - | - |
| 1777999966 | 18.89° C | 68% | 981.5 hPa | - | 4.02 m/s, 268° | - | - |
| 1777999662 | 18.89° C | 68% | 981.5 hPa | - | 4.02 m/s, 268° | - | - |
| 1777999359 | 18.89° C | 68% | 981.5 hPa | - | 4.02 m/s, 268° | - | - |
| 1777999055 | 20° C | 61% | 981.6 hPa | - | 4.02 m/s, 266° | - | - |
| 1777998752 | 20° C | 61% | 981.6 hPa | - | 4.02 m/s, 266° | - | - |
| 1777998448 | 20° C | 61% | 981.6 hPa | - | 4.02 m/s, 266° | - | - |
| 1777998145 | 20° C | 61% | 981.6 hPa | - | 4.02 m/s, 266° | - | - |
| 1777997842 | 20° C | 61% | 981.6 hPa | - | 4.02 m/s, 266° | - | - |
| 1777997539 | 20° C | 61% | 981.6 hPa | - | 3.58 m/s, 270° | - | - |
| 1777997235 | 20° C | 61% | 981.6 hPa | - | 4.02 m/s, 266° | - | - |
| 1777996932 | 20° C | 61% | 981.6 hPa | - | 4.02 m/s, 266° | - | - |
| 1777996628 | 20° C | 61% | 981.6 hPa | - | 3.58 m/s, 266° | - | - |
| 1777996325 | 20° C | 61% | 981.6 hPa | - | 3.58 m/s, 266° | - | - |
| 1777996022 | 20° C | 61% | 981.6 hPa | - | 4.02 m/s, 266° | - | - |
| 1777995719 | 20° C | 61% | 981.6 hPa | - | 4.47 m/s, 266° | - | - |
| 1777995415 | 20° C | 61% | 981.6 hPa | - | 4.47 m/s, 266° | - | - |
| 1777995112 | 22.22° C | 45% | 981.7 hPa | - | 4.92 m/s, 266° | - | - |
| 1777994809 | 22.22° C | 45% | 981.7 hPa | - | 4.92 m/s, 266° | - | - |
| 1777994506 | 22.22° C | 45% | 981.7 hPa | - | 4.92 m/s, 266° | - | - |
| 1777994202 | 22.22° C | 45% | 981.7 hPa | - | 4.92 m/s, 266° | - | - |
* Rain since midnight (hover to see other rain measurements)
** Current wind speed in m/s (hover to see current wind gust speed)